Time;durP1;ratioP1;P1;durP2;ratioP2;P2;SDS_P1;SDS_P2;PMS_P1;PMS_P2;Temp;Humidity;BMP_temperature;BMP_pressure;BME280_temperature;BME280_humidity;BME280_pressure;Samples;Min_cycle;Max_cycle;Signal;HPM_P1;HPM_P2
2022/11/26 00:00:54;;;;;;;19.57;10.07;;;;;;;5.08;100.00;94927.94;5072169;28;20227;-60
2022/11/26 00:03:20;;;;;;;18.30;10.47;;;;;;;5.02;100.00;94933.34;5072524;28;20244;-63
2022/11/26 00:05:49;;;;;;;15.67;9.87;;;;;;;5.03;100.00;94942.50;5072306;28;20298;-62
2022/11/26 00:08:16;;;;;;;20.17;9.77;;;;;;;4.94;100.00;94936.31;5072236;28;20240;-62
2022/11/26 00:10:41;;;;;;;20.37;10.73;;;;;;;4.90;100.00;94926.50;5072197;28;20206;-60
2022/11/26 00:13:21;;;;;;;16.53;9.30;;;;;;;5.02;100.00;94944.22;5072200;28;20198;-62
2022/11/26 00:15:48;;;;;;;18.10;9.80;;;;;;;4.92;100.00;94948.19;5072030;28;20277;-62
2022/11/26 00:18:17;;;;;;;18.73;9.13;;;;;;;4.90;100.00;94942.44;5071222;28;20198;-63
2022/11/26 00:20:43;;;;;;;14.30;8.77;;;;;;;4.66;100.00;94916.16;5071922;28;20212;-62
2022/11/26 00:23:18;;;;;;;17.03;6.77;;;;;;;4.64;100.00;94917.13;5072239;28;20247;-63
2022/11/26 00:25:46;;;;;;;12.63;7.47;;;;;;;4.61;100.00;94920.63;5053984;28;20222;-62
2022/11/26 00:28:31;;;;;;;13.73;6.90;;;;;;;4.53;100.00;94919.44;5072078;28;20216;-59
2022/11/26 00:31:00;;;;;;;10.87;6.03;;;;;;;4.70;100.00;94957.88;5072019;28;20212;-62
2022/11/26 00:33:27;;;;;;;10.37;6.13;;;;;;;4.54;100.00;94946.25;5071946;28;20208;-62
2022/11/26 00:35:58;;;;;;;8.07;4.63;;;;;;;4.62;100.00;94954.97;5071786;28;20216;-62
2022/11/26 00:38:24;;;;;;;9.57;5.73;;;;;;;4.67;100.00;94959.72;5071813;28;20184;-59
2022/11/26 00:40:49;;;;;;;8.30;5.53;;;;;;;4.48;100.00;94949.09;5071684;28;20211;-59
2022/11/26 00:43:16;;;;;;;7.77;5.37;;;;;;;4.52;100.00;94948.84;5053682;28;20282;-63
2022/11/26 00:45:41;;;;;;;9.10;5.33;;;;;;;4.63;99.97;94976.72;5071539;28;20547;-60
2022/11/26 00:48:07;;;;;;;10.23;5.00;;;;;;;4.63;99.08;94986.81;5071720;28;20564;-63
2022/11/26 00:50:39;;;;;;;8.93;5.40;;;;;;;4.57;100.00;94978.78;5071666;28;20211;-60
2022/11/26 00:53:07;;;;;;;8.30;4.67;;;;;;;4.54;99.80;94972.22;5071598;28;20656;-61
2022/11/26 00:55:36;;;;;;;8.70;4.20;;;;;;;4.57;99.83;94982.09;5053583;28;20219;-62
2022/11/26 00:58:02;;;;;;;8.70;4.73;;;;;;;4.63;98.71;95001.09;5071424;28;20227;-62
2022/11/26 01:00:30;;;;;;;9.40;4.33;;;;;;;4.82;97.36;95027.69;5071763;28;20244;-62
2022/11/26 01:02:56;;;;;;;8.17;4.20;;;;;;;4.77;95.35;95042.22;5071359;28;20214;-63
2022/11/26 01:05:25;;;;;;;7.73;3.87;;;;;;;4.48;96.72;95020.38;5071627;28;20207;-60
2022/11/26 01:07:52;;;;;;;7.53;4.63;;;;;;;4.55;95.62;95033.44;5053434;28;20189;-63
2022/11/26 01:10:23;;;;;;;5.10;3.43;;;;;;;4.45;96.06;95023.06;5071545;28;20214;-62
2022/11/26 01:12:50;;;;;;;5.80;3.77;;;;;;;4.34;96.25;95022.84;5071474;28;20222;-61
2022/11/26 01:15:17;;;;;;;5.47;3.87;;;;;;;4.24;97.04;95004.91;5071212;28;20288;-62
2022/11/26 01:17:42;;;;;;;7.63;4.17;;;;;;;4.37;97.47;95011.78;5071427;28;20191;-65
2022/11/26 01:20:23;;;;;;;8.23;4.60;;;;;;;4.42;97.30;95032.50;5071364;28;20303;-62
2022/11/26 01:22:50;;;;;;;6.73;4.20;;;;;;;4.21;98.12;95014.34;5071016;28;20208;-59
2022/11/26 01:25:16;;;;;;;9.23;5.13;;;;;;;4.09;100.00;94987.34;5071012;28;20658;-61
2022/11/26 01:27:42;;;;;;;6.33;3.90;;;;;;;4.24;99.66;94994.84;5053139;28;20191;-60
2022/11/26 01:30:32;;;;;;;8.23;4.87;;;;;;;4.28;100.00;94998.03;5071117;28;20700;-59
2022/11/26 01:32:59;;;;;;;6.97;4.30;;;;;;;4.25;99.65;94995.66;5053068;28;20195;-63
2022/11/26 01:35:25;;;;;;;8.63;4.93;;;;;;;4.16;99.59;94994.44;5070887;28;20259;-63
2022/11/26 01:37:51;;;;;;;7.27;4.43;;;;;;;3.98;100.00;94957.72;5069936;28;20187;-64
2022/11/26 01:40:25;;;;;;;6.37;4.23;;;;;;;4.05;100.00;94981.66;5070722;28;20208;-63
2022/11/26 01:43:06;;;;;;;7.17;4.83;;;;;;;3.91;100.00;94951.44;5070831;28;20248;-62
2022/11/26 01:45:32;;;;;;;10.70;5.77;;;;;;;4.19;100.00;94973.34;5071619;28;20271;-62
2022/11/26 01:47:57;;;;;;;9.87;5.90;;;;;;;4.04;100.00;94964.94;5069647;28;20189;-62
2022/11/26 01:50:35;;;;;;;10.60;6.40;;;;;;;4.06;100.00;94955.59;5070762;28;20199;-63
2022/11/26 01:53:09;;;;;;;12.03;7.27;;;;;;;4.08;100.00;94945.47;5052713;28;20221;-62
2022/11/26 01:55:45;;;;;;;13.43;7.40;;;;;;;4.05;100.00;94940.59;5078098;22;20208;-60
2022/11/26 01:58:17;;;;;;;13.67;7.77;;;;;;;4.06;100.00;94940.50;5032977;28;20288;-62
2022/11/26 02:00:43;;;;;;;12.93;7.30;;;;;;;3.95;100.00;94921.88;5050599;28;20352;-62
2022/11/26 02:03:08;;;;;;;14.70;7.90;;;;;;;4.10;100.00;94941.97;5050644;28;20308;-62
2022/11/26 02:05:41;;;;;;;14.50;8.27;;;;;;;4.07;100.00;94936.31;5050487;28;20217;-62
2022/11/26 02:08:09;;;;;;;15.67;8.27;;;;;;;4.12;100.00;94941.91;5050703;28;20249;-62
2022/11/26 02:10:35;;;;;;;12.37;7.83;;;;;;;3.93;100.00;94929.53;5050894;28;20236;-59
2022/11/26 02:13:00;;;;;;;14.50;8.70;;;;;;;3.79;100.00;94909.34;5050598;28;20183;-63
2022/11/26 02:15:32;;;;;;;13.23;7.87;;;;;;;3.76;100.00;94923.75;5050574;28;20224;-60
2022/11/26 02:18:06;;;;;;;15.53;8.70;;;;;;;3.82;100.00;94923.44;5050432;28;20230;-63
2022/11/26 02:21:02;;;;;;;14.57;8.63;;;;;;;3.71;100.00;94924.03;5050364;28;20213;-62
2022/11/26 02:23:39;;;;;;;16.60;7.60;;;;;;;3.61;100.00;94927.94;5032381;28;20293;-62
2022/11/26 02:26:04;;;;;;;12.23;8.03;;;;;;;3.79;100.00;94933.66;5065869;22;20698;-60
2022/11/26 02:29:07;;;;;;;15.57;7.77;;;;;;;3.81;100.00;94934.41;5070451;28;20197;-63
2022/11/26 02:32:20;;;;;;;13.93;7.30;;;;;;;3.62;100.00;94928.72;5030286;28;20213;-63
2022/11/26 02:35:12;;;;;;;11.23;7.33;;;;;;;3.73;100.00;94921.44;5036919;28;20806;-59
2022/11/26 02:37:46;;;;;;;10.37;5.47;;;;;;;3.92;100.00;94958.06;5034522;28;20202;-62
2022/11/26 02:40:12;;;;;;;8.50;5.23;;;;;;;3.82;100.00;94969.50;5033177;28;20217;-63
2022/11/26 02:42:38;;;;;;;5.63;3.83;;;;;;;3.75;100.00;94992.53;5034712;28;20395;-60
2022/11/26 02:45:10;;;;;;;5.23;3.67;;;;;;;3.44;100.00;94978.25;5053371;28;20313;-63
2022/11/26 02:47:38;;;;;;;6.37;3.50;;;;;;;3.18;100.00;94959.50;5053691;28;20186;-63
2022/11/26 02:50:10;;;;;;;5.17;4.07;;;;;;;3.29;100.00;94956.44;5053341;28;20236;-59
2022/11/26 02:52:40;;;;;;;8.73;4.37;;;;;;;3.15;100.00;94963.88;5035877;28;20178;-63
2022/11/26 02:55:08;;;;;;;7.10;3.80;;;;;;;3.10;100.00;94946.53;5053340;28;20255;-63
2022/11/26 02:57:40;;;;;;;5.47;3.87;;;;;;;3.10;100.00;94943.19;5053524;28;20594;-62
2022/11/26 03:00:06;;;;;;;7.43;4.00;;;;;;;3.20;100.00;94936.81;5053494;28;20307;-63
2022/11/26 03:02:39;;;;;;;6.33;3.93;;;;;;;3.54;100.00;94973.56;5053346;28;20209;-63
2022/11/26 03:05:07;;;;;;;7.83;4.40;;;;;;;3.66;100.00;95001.38;5035459;28;20206;-64
2022/11/26 03:07:34;;;;;;;6.33;4.13;;;;;;;3.37;100.00;94966.91;5035393;28;20191;-62
2022/11/26 03:10:00;;;;;;;6.50;3.97;;;;;;;3.51;100.00;94986.28;5053057;28;20216;-62
2022/11/26 03:12:27;;;;;;;6.47;4.13;;;;;;;2.65;100.00;94933.78;5053291;28;20194;-62
2022/11/26 03:14:53;;;;;;;7.50;4.57;;;;;;;3.16;100.00;94946.22;5053008;28;20210;-63
2022/11/26 03:17:18;;;;;;;5.63;4.07;;;;;;;3.22;100.00;94950.94;5053380;28;20187;-59
2022/11/26 03:19:44;;;;;;;8.20;5.17;;;;;;;2.99;100.00;94945.47;5052908;28;20267;-62
2022/11/26 03:22:10;;;;;;;9.03;4.57;;;;;;;3.20;100.00;94956.91;5053389;28;20245;-63
2022/11/26 03:24:36;;;;;;;7.27;4.87;;;;;;;3.19;100.00;94968.66;5053106;28;20308;-62
2022/11/26 03:27:02;;;;;;;6.63;4.13;;;;;;;3.35;100.00;94972.00;5052731;28;20189;-64
2022/11/26 03:29:27;;;;;;;5.63;4.03;;;;;;;3.39;100.00;94973.47;5052942;28;20220;-63
2022/11/26 03:31:53;;;;;;;5.67;4.70;;;;;;;3.39;100.00;94973.47;5053078;28;20199;-63
2022/11/26 03:34:25;;;;;;;6.30;4.30;;;;;;;3.53;100.00;94987.84;5052939;28;20218;-64
2022/11/26 03:36:51;;;;;;;5.67;4.13;;;;;;;3.43;100.00;94984.97;5052830;28;20199;-63
2022/11/26 03:39:16;;;;;;;7.47;4.90;;;;;;;3.23;100.00;94987.69;5052677;28;20645;-62
2022/11/26 03:41:43;;;;;;;8.33;5.00;;;;;;;3.45;100.00;94996.66;5052627;28;20213;-63
2022/11/26 03:44:09;;;;;;;8.30;5.17;;;;;;;3.47;100.00;94992.38;5052698;28;20657;-63
2022/11/26 03:46:35;;;;;;;7.60;4.93;;;;;;;3.69;100.00;94995.38;5052911;28;20216;-62
2022/11/26 03:49:00;;;;;;;12.00;4.80;;;;;;;3.57;100.00;95008.59;5052665;28;20715;-63
2022/11/26 03:51:26;;;;;;;7.23;5.03;;;;;;;3.59;100.00;95016.88;5052716;28;20717;-63
2022/11/26 03:53:51;;;;;;;7.57;4.90;;;;;;;3.65;100.00;95016.53;5052388;28;20698;-62
2022/11/26 03:56:17;;;;;;;7.87;5.03;;;;;;;3.70;100.00;95017.09;5052589;28;20190;-63
2022/11/26 03:58:42;;;;;;;9.63;5.17;;;;;;;3.84;100.00;95038.13;5052388;28;20213;-59
2022/11/26 04:01:09;;;;;;;7.13;4.67;;;;;;;3.72;100.00;95046.31;5052659;28;20220;-61
2022/11/26 04:03:35;;;;;;;8.27;5.03;;;;;;;3.66;100.00;95031.53;5052299;28;20270;-63
2022/11/26 04:06:01;;;;;;;10.37;5.40;;;;;;;3.87;100.00;95048.03;5052363;28;20569;-63
2022/11/26 04:08:27;;;;;;;10.43;5.60;;;;;;;3.66;100.00;95048.31;5018008;28;20193;-60
2022/11/26 04:10:53;;;;;;;7.50;5.10;;;;;;;3.59;100.00;95022.72;5052410;28;20209;-62
2022/11/26 04:13:18;;;;;;;10.50;6.13;;;;;;;3.45;100.00;95006.72;5052033;28;20677;-64
2022/11/26 04:15:44;;;;;;;10.97;6.07;;;;;;;3.60;100.00;95026.00;5034123;28;20593;-62
2022/11/26 04:18:09;;;;;;;12.13;8.07;;;;;;;3.51;100.00;95024.00;5052204;28;20582;-63
2022/11/26 04:20:35;;;;;;;11.87;7.47;;;;;;;3.21;100.00;95038.94;5052169;28;20211;-62
2022/11/26 04:23:00;;;;;;;10.73;7.27;;;;;;;3.47;100.00;95047.66;5052087;28;20205;-59
2022/11/26 04:25:26;;;;;;;9.83;6.20;;;;;;;3.56;100.00;95050.50;5052045;28;20214;-63
2022/11/26 04:27:51;;;;;;;12.10;7.70;;;;;;;3.58;100.00;95053.75;5052229;28;20205;-60
2022/11/26 04:30:17;;;;;;;14.73;7.90;;;;;;;3.63;100.00;95059.34;5051950;28;20570;-63
2022/11/26 04:32:42;;;;;;;12.10;7.00;;;;;;;3.82;100.00;95064.22;5033969;28;20679;-62
2022/11/26 04:35:08;;;;;;;12.93;7.57;;;;;;;3.92;100.00;95063.69;5051688;28;20224;-62
2022/11/26 04:37:34;;;;;;;11.30;7.67;;;;;;;3.94;100.00;95064.41;5051839;28;20592;-62
2022/11/26 04:40:00;;;;;;;9.63;6.93;;;;;;;3.76;100.00;95062.84;5051805;28;20519;-63
2022/11/26 04:42:25;;;;;;;10.57;7.17;;;;;;;3.82;100.00;95067.56;5051821;28;20585;-63
2022/11/26 04:44:50;;;;;;;10.77;7.57;;;;;;;3.91;100.00;95078.84;5051720;28;20292;-63
2022/11/26 04:47:16;;;;;;;11.07;7.13;;;;;;;3.70;100.00;95082.44;5052046;28;20675;-63
2022/11/26 04:49:41;;;;;;;12.83;8.33;;;;;;;3.65;100.00;95081.91;5051802;28;20205;-63
2022/11/26 04:52:06;;;;;;;11.63;6.97;;;;;;;3.67;100.00;95078.41;5052125;28;20185;-63
2022/11/26 04:54:32;;;;;;;14.43;8.47;;;;;;;3.79;100.00;95077.78;5033580;28;20262;-59
2022/11/26 04:56:57;;;;;;;10.43;7.27;;;;;;;3.94;100.00;95091.28;5051619;28;20243;-59
2022/11/26 04:59:23;;;;;;;12.03;6.87;;;;;;;3.93;100.00;95099.69;5051615;28;20285;-62
2022/11/26 05:01:48;;;;;;;10.37;7.73;;;;;;;3.46;100.00;95098.78;5051517;28;20504;-63
2022/11/26 05:04:13;;;;;;;12.40;8.50;;;;;;;3.47;100.00;95100.41;5032964;28;20206;-65
2022/11/26 05:06:39;;;;;;;12.70;7.57;;;;;;;3.47;100.00;95093.69;5033707;28;20688;-59
2022/11/26 05:09:04;;;;;;;12.40;7.87;;;;;;;3.55;100.00;95099.16;5033657;28;20575;-64
2022/11/26 05:11:30;;;;;;;11.07;7.87;;;;;;;3.53;100.00;95095.09;5033623;28;20198;-63
2022/11/26 05:13:55;;;;;;;11.00;8.00;;;;;;;3.56;100.00;95105.78;5051259;28;20662;-63
2022/11/26 05:16:21;;;;;;;13.37;7.83;;;;;;;3.67;100.00;95100.22;5033865;28;20197;-62
2022/11/26 05:18:46;;;;;;;9.40;7.03;;;;;;;3.65;100.00;95109.53;5051222;28;20216;-62
2022/11/26 05:21:11;;;;;;;12.70;8.23;;;;;;;3.47;100.00;95108.78;5051483;28;20214;-63
2022/11/26 05:23:37;;;;;;;12.00;8.00;;;;;;;3.61;100.00;95118.94;5050916;28;20258;-65
2022/11/26 05:26:02;;;;;;;12.50;8.27;;;;;;;3.54;100.00;95116.78;5033182;28;20249;-63
2022/11/26 05:28:28;;;;;;;10.50;7.40;;;;;;;3.48;100.00;95110.38;5051136;28;20185;-63
2022/11/26 05:31:01;;;;;;;11.87;8.23;;;;;;;3.43;100.00;95112.31;5051306;28;20213;-63
2022/11/26 05:33:27;;;;;;;11.40;7.73;;;;;;;3.02;100.00;95116.84;5051144;28;20194;-63
2022/11/26 05:35:52;;;;;;;13.00;7.40;;;;;;;2.95;100.00;95117.22;5051164;28;20213;-59
2022/11/26 05:38:18;;;;;;;17.37;10.83;;;;;;;2.90;100.00;95119.97;5050990;28;20185;-62
2022/11/26 05:40:43;;;;;;;14.83;9.00;;;;;;;2.85;100.00;95113.53;5051179;28;20209;-59
2022/11/26 05:43:09;;;;;;;13.60;8.20;;;;;;;2.81;100.00;95135.44;5050762;28;20244;-58
2022/11/26 05:45:34;;;;;;;11.77;8.00;;;;;;;2.81;100.00;95125.41;5050896;28;20262;-59
2022/11/26 05:48:00;;;;;;;14.47;8.57;;;;;;;2.79;100.00;95137.19;5051023;28;20687;-64
2022/11/26 05:50:25;;;;;;;15.00;8.47;;;;;;;2.48;100.00;95135.28;5033168;28;20346;-63
2022/11/26 05:52:50;;;;;;;13.70;8.47;;;;;;;2.36;100.00;95133.34;5032785;28;20673;-62
2022/11/26 05:55:17;;;;;;;16.00;9.20;;;;;;;2.34;100.00;95144.34;5032865;28;20224;-64
2022/11/26 05:57:42;;;;;;;15.37;9.13;;;;;;;2.36;100.00;95148.41;5050815;28;20189;-62
2022/11/26 06:00:09;;;;;;;10.83;8.27;;;;;;;2.66;100.00;95148.72;5050639;28;20198;-63
2022/11/26 06:02:35;;;;;;;22.57;9.37;;;;;;;2.58;100.00;95150.75;5050761;28;20213;-62
2022/11/26 06:05:01;;;;;;;15.73;8.20;;;;;;;2.56;100.00;95155.81;5050476;28;20201;-63
2022/11/26 06:07:27;;;;;;;12.33;8.63;;;;;;;2.73;100.00;95160.06;5050449;28;20667;-62
2022/11/26 06:09:53;;;;;;;15.97;9.00;;;;;;;3.04;100.00;95155.25;5016069;28;20205;-64
2022/11/26 06:12:18;;;;;;;16.00;9.33;;;;;;;3.19;100.00;95172.09;5032766;28;20207;-62
2022/11/26 06:14:44;;;;;;;12.03;7.83;;;;;;;3.28;100.00;95186.75;5032736;28;20213;-62
2022/11/26 06:17:10;;;;;;;13.37;7.80;;;;;;;3.40;100.00;95182.81;5034596;28;20203;-60
2022/11/26 06:19:36;;;;;;;14.07;7.57;;;;;;;3.48;100.00;95182.44;5053812;28;20209;-60
2022/11/26 06:22:02;;;;;;;9.53;7.63;;;;;;;3.26;100.00;95175.94;5054258;28;20286;-64
2022/11/26 06:24:27;;;;;;;11.67;7.27;;;;;;;3.20;100.00;95173.72;5053871;28;20202;-63
2022/11/26 06:26:53;;;;;;;16.43;8.67;;;;;;;3.40;100.00;95191.19;5053698;28;20208;-60
2022/11/26 06:29:18;;;;;;;13.60;8.17;;;;;;;3.54;100.00;95194.69;5035922;28;20206;-62
2022/11/26 06:31:44;;;;;;;12.23;7.70;;;;;;;3.59;100.00;95197.81;5054127;28;20197;-64
2022/11/26 06:34:09;;;;;;;17.83;7.77;;;;;;;3.40;100.00;95185.31;5053869;28;20208;-59
2022/11/26 06:36:35;;;;;;;12.43;7.53;;;;;;;3.46;100.00;95205.13;5053765;28;20667;-63
2022/11/26 06:39:00;;;;;;;13.90;8.77;;;;;;;3.47;100.00;95195.91;5053833;28;20235;-63
2022/11/26 06:41:26;;;;;;;11.40;7.83;;;;;;;3.69;100.00;95224.94;5073895;22;20228;-62
2022/11/26 06:43:51;;;;;;;11.27;7.93;;;;;;;3.49;100.00;95209.19;5073806;28;20262;-62
2022/11/26 06:46:16;;;;;;;12.60;7.57;;;;;;;3.63;100.00;95204.31;5073813;28;20232;-63
2022/11/26 06:48:42;;;;;;;12.03;7.60;;;;;;;3.63;100.00;95214.38;5073609;28;20193;-63
2022/11/26 06:51:11;;;;;;;12.17;8.50;;;;;;;3.74;100.00;95224.69;5073469;28;20283;-62
2022/11/26 06:53:37;;;;;;;10.20;7.50;;;;;;;3.91;100.00;95223.00;5073505;28;20193;-63
2022/11/26 06:56:09;;;;;;;10.43;8.13;;;;;;;3.72;100.00;95203.84;5073669;28;20317;-60
2022/11/26 06:58:35;;;;;;;11.80;6.87;;;;;;;3.57;100.00;95194.56;5080782;22;20240;-62
2022/11/26 07:01:10;;;;;;;13.87;8.43;;;;;;;3.37;100.00;95181.25;5073174;28;20209;-60
2022/11/26 07:03:36;;;;;;;17.30;8.17;;;;;;;3.54;100.00;95197.22;5073375;28;20217;-65
2022/11/26 07:06:02;;;;;;;15.93;7.67;;;;;;;3.28;100.00;95181.72;5073281;28;20254;-62
2022/11/26 07:08:27;;;;;;;13.43;8.50;;;;;;;3.42;100.00;95189.41;5074079;28;20193;-61
2022/11/26 07:10:53;;;;;;;11.80;8.70;;;;;;;3.22;100.00;95197.09;5073315;28;20212;-61
2022/11/26 07:13:25;;;;;;;11.77;7.97;;;;;;;3.17;100.00;95181.41;5073402;28;20248;-61
2022/11/26 07:15:51;;;;;;;15.87;9.20;;;;;;;2.88;100.00;95146.81;5072953;28;20702;-61
2022/11/26 07:18:16;;;;;;;14.10;9.57;;;;;;;3.23;100.00;95183.63;5062222;22;20243;-63
2022/11/26 07:20:42;;;;;;;15.27;9.03;;;;;;;3.35;100.00;95188.06;5054692;28;20208;-62
2022/11/26 07:23:08;;;;;;;16.33;9.07;;;;;;;3.34;100.00;95188.13;5073034;28;20239;-60
2022/11/26 07:25:33;;;;;;;17.23;9.73;;;;;;;3.18;100.00;95189.75;5054772;28;20571;-59
2022/11/26 07:27:58;;;;;;;15.20;8.93;;;;;;;3.22;100.00;95194.56;5072887;28;20280;-62
2022/11/26 07:30:24;;;;;;;13.53;9.07;;;;;;;3.57;100.00;95192.06;5072548;28;20597;-60
2022/11/26 07:32:49;;;;;;;14.97;8.63;;;;;;;3.66;100.00;95206.66;5072971;28;20690;-60
2022/11/26 07:35:15;;;;;;;15.67;9.47;;;;;;;3.74;100.00;95212.94;5072794;28;20232;-59
2022/11/26 07:37:40;;;;;;;13.83;8.57;;;;;;;3.97;100.00;95225.22;5073103;28;20239;-60
2022/11/26 07:40:07;;;;;;;14.37;9.13;;;;;;;3.80;100.00;95230.25;5072312;28;20204;-63
2022/11/26 07:42:33;;;;;;;16.30;10.77;;;;;;;3.73;100.00;95211.34;5054596;28;20220;-61
2022/11/26 07:44:58;;;;;;;15.77;10.23;;;;;;;3.91;100.00;95219.66;5054883;28;20281;-64
2022/11/26 07:47:24;;;;;;;15.73;9.83;;;;;;;4.11;100.00;95239.59;5073037;28;20254;-61
2022/11/26 07:49:50;;;;;;;13.20;8.53;;;;;;;3.74;100.00;95228.03;5072605;28;20210;-62
2022/11/26 07:52:15;;;;;;;13.77;8.67;;;;;;;3.91;100.00;95228.03;5054787;28;20209;-62
2022/11/26 07:54:41;;;;;;;14.77;8.73;;;;;;;4.07;100.00;95246.50;5054718;28;20651;-62
2022/11/26 07:57:06;;;;;;;15.37;9.53;;;;;;;4.37;100.00;95258.41;5072843;28;20193;-62
2022/11/26 07:59:31;;;;;;;17.63;11.47;;;;;;;4.60;100.00;95270.63;5072504;28;20212;-62
2022/11/26 08:01:57;;;;;;;15.67;10.60;;;;;;;4.60;100.00;95273.16;5054712;28;20211;-61
2022/11/26 08:04:22;;;;;;;19.17;11.23;;;;;;;4.79;100.00;95278.84;5072595;28;20284;-63
2022/11/26 08:06:48;;;;;;;13.23;9.43;;;;;;;4.90;100.00;95327.78;5072517;28;20621;-61
2022/11/26 08:09:13;;;;;;;11.33;9.03;;;;;;;4.62;100.00;95296.56;5072246;28;20305;-62
2022/11/26 08:11:39;;;;;;;14.03;9.53;;;;;;;4.64;100.00;95272.94;5072427;28;20193;-63
2022/11/26 08:14:08;;;;;;;16.10;9.50;;;;;;;4.95;100.00;95255.28;5071966;28;20590;-62
2022/11/26 08:16:33;;;;;;;15.43;10.00;;;;;;;5.19;100.00;95297.72;5072504;28;20618;-64
2022/11/26 08:19:03;;;;;;;13.87;9.93;;;;;;;5.36;100.00;95277.47;5072271;28;20189;-62
2022/11/26 08:21:28;;;;;;;12.07;8.80;;;;;;;5.42;100.00;95295.59;5072333;28;20213;-63
2022/11/26 08:23:54;;;;;;;17.90;11.33;;;;;;;5.34;100.00;95282.59;5071988;28;20680;-60
2022/11/26 08:26:20;;;;;;;13.70;9.67;;;;;;;5.30;100.00;95321.47;5054038;28;20245;-64
2022/11/26 08:28:46;;;;;;;25.70;9.23;;;;;;;4.62;100.00;95287.31;5071830;28;20195;-63
2022/11/26 08:31:14;;;;;;;12.63;8.60;;;;;;;4.52;100.00;95270.22;5071900;28;20573;-64
2022/11/26 08:33:40;;;;;;;14.70;9.23;;;;;;;4.79;100.00;95289.75;5071741;28;20204;-62
2022/11/26 08:36:07;;;;;;;12.53;8.90;;;;;;;5.08;100.00;95313.41;5079183;22;20230;-62
2022/11/26 08:38:33;;;;;;;13.43;8.20;;;;;;;4.94;100.00;95311.63;5053476;28;20219;-63
2022/11/26 08:41:06;;;;;;;15.00;9.10;;;;;;;4.90;100.00;95307.63;5070976;28;20712;-63
2022/11/26 08:43:33;;;;;;;16.47;9.30;;;;;;;5.79;100.00;95219.53;5071657;28;20246;-62
2022/11/26 08:46:00;;;;;;;21.90;11.87;;;;;;;6.71;100.00;95224.16;5071702;28;20242;-63
2022/11/26 08:48:28;;;;;;;21.73;11.20;;;;;;;6.55;100.00;95275.66;5053788;28;20550;-62
2022/11/26 08:51:11;;;;;;;14.10;9.60;;;;;;;6.82;100.00;95391.97;5053562;28;20216;-63
2022/11/26 08:53:37;;;;;;;13.80;9.37;;;;;;;6.40;100.00;95375.06;5071250;28;20229;-63
2022/11/26 08:56:08;;;;;;;13.70;9.30;;;;;;;5.87;100.00;95355.34;5069654;28;20278;-64
2022/11/26 08:58:37;;;;;;;14.50;8.90;;;;;;;6.18;100.00;95385.53;5071109;28;20201;-60
2022/11/26 09:01:16;;;;;;;12.00;8.63;;;;;;;5.60;100.00;95344.19;5071327;28;20246;-62
2022/11/26 09:03:42;;;;;;;14.30;10.20;;;;;;;5.32;100.00;95339.84;5071497;28;20219;-62
2022/11/26 09:06:09;;;;;;;14.53;9.90;;;;;;;5.35;100.00;95306.09;5071398;28;20657;-62
2022/11/26 09:11:20;;;;;;;15.73;10.93;;;;;;;5.57;100.00;95307.38;5071945;28;20187;-66
2022/11/26 09:13:46;;;;;;;14.43;9.77;;;;;;;6.11;100.00;95355.69;5053403;28;20195;-63
2022/11/26 09:16:11;;;;;;;15.80;11.10;;;;;;;6.27;100.00;95341.28;5053700;28;20719;-61
2022/11/26 09:18:37;;;;;;;14.63;9.97;;;;;;;6.39;100.00;95396.16;5036863;28;20802;-63
2022/11/26 09:21:03;;;;;;;13.33;9.90;;;;;;;6.38;100.00;95382.69;5071206;28;20764;-59
2022/11/26 09:23:28;;;;;;;18.77;10.83;;;;;;;6.98;100.00;95408.69;5071223;28;20689;-60
2022/11/26 09:25:54;;;;;;;12.13;9.43;;;;;;;7.52;100.00;95493.13;5071142;28;20712;-63
2022/11/26 09:28:19;;;;;;;12.03;9.57;;;;;;;7.77;100.00;95489.94;5071482;28;20192;-60
2022/11/26 09:30:45;;;;;;;14.47;10.77;;;;;;;7.88;100.00;95470.66;5053176;28;20318;-60
2022/11/26 09:33:10;;;;;;;16.50;10.73;;;;;;;8.16;100.00;95506.03;5071154;28;20184;-62
2022/11/26 09:35:36;;;;;;;17.30;12.10;;;;;;;8.32;100.00;95486.47;5070979;28;20285;-62
2022/11/26 09:38:01;;;;;;;16.40;11.67;;;;;;;7.93;100.00;95478.81;5070964;28;20180;-63
2022/11/26 09:40:44;;;;;;;15.80;11.40;;;;;;;8.66;100.00;95476.75;5070820;28;20205;-63
2022/11/26 09:43:25;;;;;;;18.43;11.27;;;;;;;9.01;100.00;95526.00;5071078;28;20214;-61
2022/11/26 09:45:57;;;;;;;13.00;9.90;;;;;;;8.89;100.00;95537.75;5071035;28;20304;-62
2022/11/26 09:48:25;;;;;;;14.10;10.23;;;;;;;9.67;100.00;95515.69;5052978;28;20262;-63
2022/11/26 09:50:57;;;;;;;13.40;10.53;;;;;;;10.06;97.81;95597.59;5070538;28;20204;-60
2022/11/26 09:53:29;;;;;;;16.20;11.10;;;;;;;10.44;95.56;95601.84;5070581;28;20196;-62
2022/11/26 09:55:55;;;;;;;13.67;10.10;;;;;;;10.53;83.12;95617.28;5069361;28;20205;-61
2022/11/26 09:58:23;;;;;;;14.63;9.67;;;;;;;11.20;81.47;95620.16;5051596;28;20287;-60
2022/11/26 10:00:51;;;;;;;13.97;11.27;;;;;;;10.51;80.35;95608.94;5070589;28;20310;-62
2022/11/26 10:03:19;;;;;;;17.53;10.80;;;;;;;10.35;82.89;95544.00;5070610;28;20753;-64
2022/11/26 10:05:50;;;;;;;13.67;9.63;;;;;;;11.03;81.27;95574.75;5070767;28;20201;-62
2022/11/26 10:08:27;;;;;;;14.07;10.47;;;;;;;11.45;78.86;95589.47;5070692;28;20195;-62
2022/11/26 10:11:24;;;;;;;15.80;10.93;;;;;;;11.76;78.42;95599.03;5070510;28;20286;-61
2022/11/26 10:14:08;;;;;;;12.87;10.40;;;;;;;11.40;75.78;95633.09;5037750;28;20228;-64
2022/11/26 10:16:57;;;;;;;14.80;10.73;;;;;;;11.85;70.32;95645.97;5052682;28;20196;-60
2022/11/26 10:20:00;;;;;;;18.50;12.70;;;;;;;11.94;69.15;95618.06;5060017;28;20724;-60
2022/11/26 10:22:36;;;;;;;32.20;14.30;;;;;;;12.13;70.38;95589.47;5070563;28;20208;-62
2022/11/26 10:25:12;;;;;;;17.60;11.93;;;;;;;11.65;70.12;95581.19;5070932;28;20268;-64
2022/11/26 10:27:38;;;;;;;18.17;10.97;;;;;;;11.84;68.67;95617.13;5070342;28;20188;-60
2022/11/26 10:30:20;;;;;;;15.50;11.80;;;;;;;12.02;68.34;95604.75;5070572;28;20209;-60
2022/11/26 10:32:47;;;;;;;16.70;11.17;;;;;;;12.15;67.52;95613.09;5070257;28;20586;-62
2022/11/26 10:35:26;;;;;;;19.93;13.57;;;;;;;12.57;66.81;95620.03;5052317;28;20224;-62
2022/11/26 10:37:54;;;;;;;16.90;12.37;;;;;;;12.55;65.58;95645.66;5052391;28;20286;-62
2022/11/26 10:40:29;;;;;;;14.10;10.10;;;;;;;12.60;64.96;95658.06;5070627;28;20563;-62
2022/11/26 10:43:09;;;;;;;11.83;9.13;;;;;;;12.48;62.77;95684.50;5052195;28;20213;-63
2022/11/26 10:45:38;;;;;;;13.03;9.20;;;;;;;12.38;64.19;95647.88;5052056;28;20323;-63
2022/11/26 10:48:31;;;;;;;11.57;9.47;;;;;;;12.39;65.56;95619.69;5052100;28;20271;-62
2022/11/26 10:51:12;;;;;;;16.57;10.10;;;;;;;12.66;63.72;95660.94;5066765;28;20300;-62
2022/11/26 10:53:59;;;;;;;13.13;9.13;;;;;;;12.75;63.65;95650.94;5052105;28;20205;-63
2022/11/26 10:56:35;;;;;;;15.00;9.47;;;;;;;12.67;63.30;95651.53;5069983;28;20180;-63
2022/11/26 10:59:04;;;;;;;12.43;9.73;;;;;;;12.61;63.05;95659.66;5070087;28;20242;-63
2022/11/26 11:01:38;;;;;;;11.27;9.07;;;;;;;12.70;63.54;95636.03;5069992;28;20559;-64
2022/11/26 11:04:29;;;;;;;13.90;9.37;;;;;;;12.93;63.02;95652.88;5073134;28;20205;-62
2022/11/26 11:06:55;;;;;;;12.43;8.80;;;;;;;12.78;61.78;95671.97;5072772;28;20270;-61
2022/11/26 11:09:33;;;;;;;12.83;9.30;;;;;;;12.87;61.80;95680.63;5073719;28;20324;-61
2022/11/26 11:12:14;;;;;;;14.80;9.70;;;;;;;13.00;59.61;95732.38;5055254;28;20183;-62
2022/11/26 11:14:40;;;;;;;11.40;9.47;;;;;;;12.84;59.96;95706.41;5073404;28;20303;-61
2022/11/26 11:17:10;;;;;;;13.87;9.50;;;;;;;12.73;60.50;95681.69;5073358;28;20212;-61
2022/11/26 11:19:36;;;;;;;14.07;9.77;;;;;;;12.74;62.60;95639.13;5073219;28;20621;-63
2022/11/26 11:22:03;;;;;;;15.87;11.77;;;;;;;13.03;62.16;95648.69;5055162;28;20517;-62
2022/11/26 11:24:28;;;;;;;15.27;12.00;;;;;;;13.01;61.25;95652.31;5055571;28;20595;-62
2022/11/26 11:27:01;;;;;;;12.63;9.57;;;;;;;12.89;60.16;95673.69;5073315;28;20185;-61
2022/11/26 11:29:35;;;;;;;12.47;10.50;;;;;;;12.95;60.65;95656.13;5054853;28;20216;-61
2022/11/26 11:32:25;;;;;;;17.27;10.40;;;;;;;12.99;60.61;95666.94;5072799;28;20208;-59
2022/11/26 11:34:51;;;;;;;15.57;11.87;;;;;;;12.91;60.98;95651.41;5073014;28;20244;-61
2022/11/26 11:37:20;;;;;;;18.00;13.00;;;;;;;13.00;61.15;95650.69;5072978;28;20184;-59